Archival Weather

Republic

Farmingdale, New York (KFRG)

Report from: Saturday, February 24, 2024 9:53 PM EST
Current time: Friday, June 21, 2024 3:13 AM EDT

Current weather – Weather history – Daily summaries
Weather forecast

Temperature-0.6°C (30.9°F)
Wind chill-5.4°C (22.2°F)
Dew point-14.4°C (6.1°F)
Winds 9 kts (4.6 m/s, 10.4 mph) North (350°)
Wind gusts 17 kts (8.7 m/s, 19.6 mph)
Visibility10 mi. (16.1 km)
Clouds Sky clear
Altimeter29.95 in.Hg (1014 mB)
Relative humidity34 %
Density altitude-1,906 ft. (-581 m)
Sea-level pressure101.4 kPa (1014 mB, 29.95 in.Hg)
Remarks Fully automated report
Automated weather observing station without precipitation discriminator
Freezing rain sensor not operating
Pressure rising more slowly
Flight conditions Visual Meteorological Conditions
Raw dataKFRG 250253Z AUTO 35009G17KT 10SM CLR M01/M14 A2995 RMK AO1 SLP143 T10061144 51035 FZRANO
An error has occurred. This application may no longer respond until reloaded. Reload 🗙